sensor_id;sensor_type;location;lat;lon;timestamp;pressure;altitude;pressure_sealevel;temperature;humidity
74370;BME280;71062;44.520;11.342;2023-07-24T00:00:44;100856.72;;;25.95;40.54
74370;BME280;71062;44.520;11.342;2023-07-24T00:03:09;100878.28;;;25.82;41.32
74370;BME280;71062;44.520;11.342;2023-07-24T00:05:35;100875.84;;;25.84;43.87
74370;BME280;71062;44.520;11.342;2023-07-24T00:08:01;100879.31;;;25.55;46.05
74370;BME280;71062;44.520;11.342;2023-07-24T00:10:27;100878.69;;;25.46;48.01
74370;BME280;71062;44.520;11.342;2023-07-24T00:12:52;100885.31;;;25.30;48.52
74370;BME280;71062;44.520;11.342;2023-07-24T00:15:18;100881.06;;;25.24;49.17
74370;BME280;71062;44.520;11.342;2023-07-24T00:17:44;100892.38;;;25.33;49.13
74370;BME280;71062;44.520;11.342;2023-07-24T00:20:10;100895.78;;;25.04;49.52
74370;BME280;71062;44.520;11.342;2023-07-24T00:22:36;100878.09;;;24.86;49.95
74370;BME280;71062;44.520;11.342;2023-07-24T00:25:01;100879.69;;;24.84;51.50
74370;BME280;71062;44.520;11.342;2023-07-24T00:27:27;100883.03;;;24.86;50.96
74370;BME280;71062;44.520;11.342;2023-07-24T00:29:53;100870.22;;;24.83;50.19
74370;BME280;71062;44.520;11.342;2023-07-24T00:32:18;100869.38;;;24.67;50.88
74370;BME280;71062;44.520;11.342;2023-07-24T00:34:46;100860.88;;;24.71;50.92
74370;BME280;71062;44.520;11.342;2023-07-24T00:37:12;100855.66;;;24.61;51.12
74370;BME280;71062;44.520;11.342;2023-07-24T00:39:38;100854.75;;;24.72;51.19
74370;BME280;71062;44.520;11.342;2023-07-24T00:42:03;100855.28;;;24.62;51.48
74370;BME280;71062;44.520;11.342;2023-07-24T00:44:29;100858.00;;;24.71;51.68
74370;BME280;71062;44.520;11.342;2023-07-24T00:46:55;100843.50;;;24.67;51.31
74370;BME280;71062;44.520;11.342;2023-07-24T00:49:21;100838.25;;;24.54;52.10
74370;BME280;71062;44.520;11.342;2023-07-24T00:51:47;100842.50;;;24.60;51.80
74370;BME280;71062;44.520;11.342;2023-07-24T00:54:16;100841.13;;;24.54;52.03
74370;BME280;71062;44.520;11.342;2023-07-24T00:56:44;100846.78;;;24.50;52.88
74370;BME280;71062;44.520;11.342;2023-07-24T00:59:10;100840.19;;;24.34;52.06
74370;BME280;71062;44.520;11.342;2023-07-24T01:01:38;100843.06;;;24.34;52.33
74370;BME280;71062;44.520;11.342;2023-07-24T01:04:06;100857.06;;;24.36;51.63
74370;BME280;71062;44.520;11.342;2023-07-24T01:06:32;100849.94;;;24.14;51.90
74370;BME280;71062;44.520;11.342;2023-07-24T01:08:58;100840.84;;;24.12;52.00
74370;BME280;71062;44.520;11.342;2023-07-24T01:11:29;100854.28;;;24.23;51.13
74370;BME280;71062;44.520;11.342;2023-07-24T01:14:23;100855.28;;;24.00;52.19
74370;BME280;71062;44.520;11.342;2023-07-24T01:16:50;100839.81;;;23.77;52.60
74370;BME280;71062;44.520;11.342;2023-07-24T01:19:21;100845.50;;;23.89;52.90
74370;BME280;71062;44.520;11.342;2023-07-24T01:27:32;100863.00;;;23.84;53.77
74370;BME280;71062;44.520;11.342;2023-07-24T01:29:58;100865.19;;;23.75;53.42
74370;BME280;71062;44.520;11.342;2023-07-24T01:32:24;100866.84;;;23.76;52.82
74370;BME280;71062;44.520;11.342;2023-07-24T01:34:51;100863.72;;;23.81;53.14
74370;BME280;71062;44.520;11.342;2023-07-24T01:37:18;100863.53;;;23.74;53.62
74370;BME280;71062;44.520;11.342;2023-07-24T01:39:46;100857.47;;;23.63;53.52
74370;BME280;71062;44.520;11.342;2023-07-24T01:42:13;100861.66;;;23.81;52.51
74370;BME280;71062;44.520;11.342;2023-07-24T01:44:39;100874.47;;;23.84;51.91
74370;BME280;71062;44.520;11.342;2023-07-24T01:47:05;100874.25;;;23.77;51.61
74370;BME280;71062;44.520;11.342;2023-07-24T01:49:30;100860.72;;;23.62;52.87
74370;BME280;71062;44.520;11.342;2023-07-24T01:51:56;100855.63;;;23.71;52.80
74370;BME280;71062;44.520;11.342;2023-07-24T01:54:23;100854.03;;;23.58;53.48
74370;BME280;71062;44.520;11.342;2023-07-24T01:56:49;100844.00;;;23.52;51.94
74370;BME280;71062;44.520;11.342;2023-07-24T01:59:14;100826.06;;;23.55;52.38
74370;BME280;71062;44.520;11.342;2023-07-24T02:01:43;100822.56;;;23.61;54.11
74370;BME280;71062;44.520;11.342;2023-07-24T02:04:08;100797.03;;;23.72;51.28
74370;BME280;71062;44.520;11.342;2023-07-24T02:06:34;100792.56;;;23.59;51.61
74370;BME280;71062;44.520;11.342;2023-07-24T02:08:59;100801.28;;;23.78;51.04
74370;BME280;71062;44.520;11.342;2023-07-24T02:11:25;100807.16;;;23.54;51.48
74370;BME280;71062;44.520;11.342;2023-07-24T02:13:51;100809.28;;;23.57;51.61
74370;BME280;71062;44.520;11.342;2023-07-24T02:16:17;100806.97;;;23.47;52.35
74370;BME280;71062;44.520;11.342;2023-07-24T02:18:43;100812.69;;;23.47;52.46
74370;BME280;71062;44.520;11.342;2023-07-24T02:21:09;100810.34;;;23.37;54.30
74370;BME280;71062;44.520;11.342;2023-07-24T02:23:35;100805.19;;;23.42;52.77
74370;BME280;71062;44.520;11.342;2023-07-24T02:26:01;100813.84;;;23.58;53.38
74370;BME280;71062;44.520;11.342;2023-07-24T02:28:26;100819.59;;;23.58;52.78
74370;BME280;71062;44.520;11.342;2023-07-24T02:30:52;100820.81;;;23.72;52.31
74370;BME280;71062;44.520;11.342;2023-07-24T02:33:22;100802.22;;;23.82;51.60
74370;BME280;71062;44.520;11.342;2023-07-24T02:35:50;100759.56;;;23.80;51.04
74370;BME280;71062;44.520;11.342;2023-07-24T02:38:16;100732.41;;;23.78;52.59
74370;BME280;71062;44.520;11.342;2023-07-24T02:40:43;100762.19;;;24.01;50.97
74370;BME280;71062;44.520;11.342;2023-07-24T02:43:09;100766.16;;;24.12;50.16
74370;BME280;71062;44.520;11.342;2023-07-24T02:45:36;100739.84;;;24.10;49.59
74370;BME280;71062;44.520;11.342;2023-07-24T02:48:02;100791.06;;;24.23;49.91
74370;BME280;71062;44.520;11.342;2023-07-24T02:50:29;100803.03;;;24.10;53.21
74370;BME280;71062;44.520;11.342;2023-07-24T02:52:54;100799.84;;;23.84;53.05
74370;BME280;71062;44.520;11.342;2023-07-24T02:55:20;100759.25;;;23.70;53.57
74370;BME280;71062;44.520;11.342;2023-07-24T02:57:45;100746.13;;;23.84;55.70
74370;BME280;71062;44.520;11.342;2023-07-24T03:00:11;100742.13;;;23.89;52.68
74370;BME280;71062;44.520;11.342;2023-07-24T03:02:38;100736.50;;;23.77;55.18
74370;BME280;71062;44.520;11.342;2023-07-24T03:05:03;100738.63;;;23.80;52.87
74370;BME280;71062;44.520;11.342;2023-07-24T03:07:29;100752.81;;;24.04;50.94
74370;BME280;71062;44.520;11.342;2023-07-24T03:09:55;100759.84;;;23.91;52.16
74370;BME280;71062;44.520;11.342;2023-07-24T03:12:21;100772.69;;;23.97;53.37
74370;BME280;71062;44.520;11.342;2023-07-24T03:14:47;100783.84;;;23.98;52.33
74370;BME280;71062;44.520;11.342;2023-07-24T03:17:13;100777.63;;;23.81;53.71
74370;BME280;71062;44.520;11.342;2023-07-24T03:19:40;100779.28;;;23.82;53.45
74370;BME280;71062;44.520;11.342;2023-07-24T03:22:05;100769.13;;;24.00;50.80
74370;BME280;71062;44.520;11.342;2023-07-24T03:24:31;100778.00;;;23.95;51.66
74370;BME280;71062;44.520;11.342;2023-07-24T03:26:57;100781.31;;;23.97;52.71
74370;BME280;71062;44.520;11.342;2023-07-24T03:29:22;100788.06;;;23.89;52.74
74370;BME280;71062;44.520;11.342;2023-07-24T03:31:48;100777.72;;;23.84;52.72
74370;BME280;71062;44.520;11.342;2023-07-24T03:34:17;100791.69;;;23.86;52.73
74370;BME280;71062;44.520;11.342;2023-07-24T03:36:42;100803.84;;;23.95;52.79
74370;BME280;71062;44.520;11.342;2023-07-24T03:39:10;100802.50;;;23.77;52.74
74370;BME280;71062;44.520;11.342;2023-07-24T03:41:36;100789.25;;;23.72;53.21
74370;BME280;71062;44.520;11.342;2023-07-24T03:44:02;100783.50;;;23.72;53.62
74370;BME280;71062;44.520;11.342;2023-07-24T03:46:40;100787.78;;;23.94;52.59
74370;BME280;71062;44.520;11.342;2023-07-24T03:49:06;100777.63;;;23.81;52.78
74370;BME280;71062;44.520;11.342;2023-07-24T03:51:32;100752.97;;;23.80;53.14
74370;BME280;71062;44.520;11.342;2023-07-24T03:53:58;100739.44;;;23.65;54.42
74370;BME280;71062;44.520;11.342;2023-07-24T03:56:24;100729.03;;;23.45;55.49
74370;BME280;71062;44.520;11.342;2023-07-24T03:58:50;100720.22;;;23.38;54.89
74370;BME280;71062;44.520;11.342;2023-07-24T04:01:15;100714.66;;;23.29;54.87
74370;BME280;71062;44.520;11.342;2023-07-24T04:03:41;100715.50;;;23.30;55.38
74370;BME280;71062;44.520;11.342;2023-07-24T04:06:06;100712.38;;;23.35;55.89
74370;BME280;71062;44.520;11.342;2023-07-24T04:08:32;100723.38;;;23.33;55.52
74370;BME280;71062;44.520;11.342;2023-07-24T04:10:58;100709.53;;;23.22;55.98
74370;BME280;71062;44.520;11.342;2023-07-24T04:13:23;100707.38;;;23.32;56.34
74370;BME280;71062;44.520;11.342;2023-07-24T04:15:49;100711.09;;;23.48;55.35
74370;BME280;71062;44.520;11.342;2023-07-24T04:18:15;100704.03;;;23.30;55.87
74370;BME280;71062;44.520;11.342;2023-07-24T04:20:41;100690.53;;;23.18;56.70
74370;BME280;71062;44.520;11.342;2023-07-24T04:23:07;100691.91;;;23.08;57.37
74370;BME280;71062;44.520;11.342;2023-07-24T04:25:32;100688.31;;;23.11;57.74
74370;BME280;71062;44.520;11.342;2023-07-24T04:27:58;100709.63;;;23.26;58.23
74370;BME280;71062;44.520;11.342;2023-07-24T04:30:24;100728.63;;;23.31;56.54
74370;BME280;71062;44.520;11.342;2023-07-24T04:32:49;100726.00;;;23.25;57.89
74370;BME280;71062;44.520;11.342;2023-07-24T04:35:15;100727.91;;;23.21;57.96
74370;BME280;71062;44.520;11.342;2023-07-24T04:37:41;100734.13;;;23.23;59.53
74370;BME280;71062;44.520;11.342;2023-07-24T04:40:07;100761.81;;;23.44;58.69
74370;BME280;71062;44.520;11.342;2023-07-24T04:42:33;100762.28;;;23.46;58.06
74370;BME280;71062;44.520;11.342;2023-07-24T04:44:59;100757.50;;;23.38;59.04
74370;BME280;71062;44.520;11.342;2023-07-24T04:47:24;100764.28;;;23.17;58.64
74370;BME280;71062;44.520;11.342;2023-07-24T04:49:53;100812.28;;;23.33;59.17
74370;BME280;71062;44.520;11.342;2023-07-24T04:52:20;100862.47;;;23.39;58.75
74370;BME280;71062;44.520;11.342;2023-07-24T04:54:46;100947.56;;;23.35;57.82
74370;BME280;71062;44.520;11.342;2023-07-24T04:57:12;101002.31;;;23.30;57.33
74370;BME280;71062;44.520;11.342;2023-07-24T04:59:37;100972.19;;;22.99;58.88
74370;BME280;71062;44.520;11.342;2023-07-24T05:02:03;100882.63;;;22.66;60.69
74370;BME280;71062;44.520;11.342;2023-07-24T05:04:29;100807.50;;;22.37;63.03
74370;BME280;71062;44.520;11.342;2023-07-24T05:06:54;100731.25;;;22.08;63.83
74370;BME280;71062;44.520;11.342;2023-07-24T05:09:20;100725.09;;;22.18;64.41
74370;BME280;71062;44.520;11.342;2023-07-24T05:11:46;100772.31;;;22.24;67.89
74370;BME280;71062;44.520;11.342;2023-07-24T05:14:12;100886.59;;;22.17;65.30
74370;BME280;71062;44.520;11.342;2023-07-24T05:16:37;100940.25;;;22.20;65.41
74370;BME280;71062;44.520;11.342;2023-07-24T05:19:03;100969.41;;;22.34;63.95
74370;BME280;71062;44.520;11.342;2023-07-24T05:21:29;101005.97;;;22.37;63.56
74370;BME280;71062;44.520;11.342;2023-07-24T05:23:54;101089.97;;;22.41;63.91
74370;BME280;71062;44.520;11.342;2023-07-24T05:26:20;101124.63;;;22.48;64.96
74370;BME280;71062;44.520;11.342;2023-07-24T05:28:47;101091.94;;;22.49;64.92
74370;BME280;71062;44.520;11.342;2023-07-24T05:31:13;101024.31;;;22.36;65.54
74370;BME280;71062;44.520;11.342;2023-07-24T05:33:39;100971.44;;;22.22;65.28
74370;BME280;71062;44.520;11.342;2023-07-24T05:36:08;100949.53;;;22.05;68.06
74370;BME280;71062;44.520;11.342;2023-07-24T05:38:33;100930.59;;;22.12;66.03
74370;BME280;71062;44.520;11.342;2023-07-24T05:41:02;100924.28;;;22.19;67.09
74370;BME280;71062;44.520;11.342;2023-07-24T05:43:28;100938.16;;;22.29;66.96
74370;BME280;71062;44.520;11.342;2023-07-24T05:45:55;100955.72;;;22.40;67.06
74370;BME280;71062;44.520;11.342;2023-07-24T05:48:22;100950.25;;;22.47;67.13
74370;BME280;71062;44.520;11.342;2023-07-24T05:50:48;100933.47;;;22.69;65.78
74370;BME280;71062;44.520;11.342;2023-07-24T05:53:15;100900.03;;;22.85;66.21
74370;BME280;71062;44.520;11.342;2023-07-24T05:55:41;100867.28;;;23.10;65.00
74370;BME280;71062;44.520;11.342;2023-07-24T05:58:08;100818.75;;;23.30;63.56
74370;BME280;71062;44.520;11.342;2023-07-24T06:00:34;100820.03;;;23.44;63.92
74370;BME280;71062;44.520;11.342;2023-07-24T06:03:00;100855.88;;;23.66;63.13
74370;BME280;71062;44.520;11.342;2023-07-24T06:05:26;100844.50;;;23.69;63.50
74370;BME280;71062;44.520;11.342;2023-07-24T06:07:52;100844.34;;;23.78;62.33
74370;BME280;71062;44.520;11.342;2023-07-24T06:10:18;100864.63;;;23.85;61.86
74370;BME280;71062;44.520;11.342;2023-07-24T06:12:43;100853.34;;;23.92;63.00
74370;BME280;71062;44.520;11.342;2023-07-24T06:15:09;100848.34;;;23.89;62.23
74370;BME280;71062;44.520;11.342;2023-07-24T06:17:35;100853.97;;;24.13;61.50
74370;BME280;71062;44.520;11.342;2023-07-24T06:20:00;100795.97;;;24.23;61.04
74370;BME280;71062;44.520;11.342;2023-07-24T06:22:26;100719.91;;;24.33;60.85
74370;BME280;71062;44.520;11.342;2023-07-24T06:24:51;100708.69;;;24.43;60.69
74370;BME280;71062;44.520;11.342;2023-07-24T06:27:17;100619.31;;;24.48;60.74
74370;BME280;71062;44.520;11.342;2023-07-24T06:29:42;100607.97;;;24.55;59.36
74370;BME280;71062;44.520;11.342;2023-07-24T06:32:08;100668.16;;;24.67;59.24
74370;BME280;71062;44.520;11.342;2023-07-24T06:34:34;100653.25;;;24.62;59.32
74370;BME280;71062;44.520;11.342;2023-07-24T06:37:00;100643.59;;;24.51;59.89
74370;BME280;71062;44.520;11.342;2023-07-24T06:39:26;100685.69;;;24.43;60.48
74370;BME280;71062;44.520;11.342;2023-07-24T06:41:54;100697.47;;;24.38;60.96
74370;BME280;71062;44.520;11.342;2023-07-24T06:44:20;100724.25;;;24.42;61.48
74370;BME280;71062;44.520;11.342;2023-07-24T06:46:46;100775.75;;;24.66;61.77
74370;BME280;71062;44.520;11.342;2023-07-24T06:49:12;100819.97;;;24.62;62.70
74370;BME280;71062;44.520;11.342;2023-07-24T06:51:38;100824.59;;;24.82;61.82
74370;BME280;71062;44.520;11.342;2023-07-24T06:54:05;100838.00;;;24.93;60.90
74370;BME280;71062;44.520;11.342;2023-07-24T07:07:45;100755.25;;;25.21;62.57
74370;BME280;71062;44.520;11.342;2023-07-24T07:10:11;100732.69;;;25.04;63.43
74370;BME280;71062;44.520;11.342;2023-07-24T07:16:13;100631.81;;;24.94;61.55
74370;BME280;71062;44.520;11.342;2023-07-24T07:18:55;100652.34;;;24.92;61.88
74370;BME280;71062;44.520;11.342;2023-07-24T07:21:22;100682.88;;;25.00;60.15
74370;BME280;71062;44.520;11.342;2023-07-24T07:23:57;100681.69;;;25.20;59.09
74370;BME280;71062;44.520;11.342;2023-07-24T07:26:30;100618.84;;;25.22;57.54
74370;BME280;71062;44.520;11.342;2023-07-24T07:28:59;100605.31;;;25.46;56.09
74370;BME280;71062;44.520;11.342;2023-07-24T07:31:28;100588.00;;;25.65;55.04
74370;BME280;71062;44.520;11.342;2023-07-24T07:34:12;100563.72;;;25.92;53.47
74370;BME280;71062;44.520;11.342;2023-07-24T07:46:30;100469.69;;;27.06;52.03
74370;BME280;71062;44.520;11.342;2023-07-24T07:49:02;100456.38;;;26.94;51.08
74370;BME280;71062;44.520;11.342;2023-07-24T07:52:08;100483.03;;;27.24;50.67
74370;BME280;71062;44.520;11.342;2023-07-24T07:55:20;100453.13;;;26.96;49.91
74370;BME280;71062;44.520;11.342;2023-07-24T08:01:54;100505.78;;;27.29;49.59
74370;BME280;71062;44.520;11.342;2023-07-24T08:11:54;100542.41;;;26.52;53.62
74370;BME280;71062;44.520;11.342;2023-07-24T08:45:20;100579.69;;;28.46;47.25
74370;BME280;71062;44.520;11.342;2023-07-24T08:48:23;100575.56;;;28.47;46.47
74370;BME280;71062;44.520;11.342;2023-07-24T09:18:50;100567.75;;;27.02;57.45
74370;BME280;71062;44.520;11.342;2023-07-24T09:21:50;100631.44;;;27.23;56.96
74370;BME280;71062;44.520;11.342;2023-07-24T09:28:01;100669.88;;;27.64;56.04
74370;BME280;71062;44.520;11.342;2023-07-24T09:31:02;100646.59;;;27.46;55.75
74370;BME280;71062;44.520;11.342;2023-07-24T09:33:39;100682.88;;;27.88;54.99
74370;BME280;71062;44.520;11.342;2023-07-24T09:36:17;100697.59;;;28.16;54.77
74370;BME280;71062;44.520;11.342;2023-07-24T09:38:43;100738.38;;;28.51;55.37
74370;BME280;71062;44.520;11.342;2023-07-24T09:41:12;100689.09;;;28.37;54.00
74370;BME280;71062;44.520;11.342;2023-07-24T09:43:41;100709.28;;;28.30;54.31
74370;BME280;71062;44.520;11.342;2023-07-24T09:46:09;100750.63;;;28.34;55.21
74370;BME280;71062;44.520;11.342;2023-07-24T09:48:35;100784.78;;;28.69;54.41
74370;BME280;71062;44.520;11.342;2023-07-24T09:51:02;100804.97;;;29.12;53.59
74370;BME280;71062;44.520;11.342;2023-07-24T09:53:41;100831.78;;;29.74;52.02
74370;BME280;71062;44.520;11.342;2023-07-24T09:56:09;100813.66;;;30.02;50.90
74370;BME280;71062;44.520;11.342;2023-07-24T09:58:37;100797.84;;;29.82;50.89
74370;BME280;71062;44.520;11.342;2023-07-24T10:01:05;100782.81;;;29.51;52.22
74370;BME280;71062;44.520;11.342;2023-07-24T10:03:38;100739.00;;;29.60;51.91
74370;BME280;71062;44.520;11.342;2023-07-24T10:06:05;100699.13;;;29.25;53.19
74370;BME280;71062;44.520;11.342;2023-07-24T10:08:34;100699.22;;;29.53;50.39
74370;BME280;71062;44.520;11.342;2023-07-24T10:11:00;100721.66;;;29.85;51.21
74370;BME280;71062;44.520;11.342;2023-07-24T10:13:31;100728.63;;;29.62;51.74
74370;BME280;71062;44.520;11.342;2023-07-24T10:16:03;100728.06;;;29.18;53.21
74370;BME280;71062;44.520;11.342;2023-07-24T10:18:32;100700.78;;;29.19;54.05
74370;BME280;71062;44.520;11.342;2023-07-24T11:41:46;100565.03;;;32.00;46.02
74370;BME280;71062;44.520;11.342;2023-07-24T11:44:12;100562.78;;;32.55;46.39
74370;BME280;71062;44.520;11.342;2023-07-24T11:46:42;100550.66;;;32.60;46.04
74370;BME280;71062;44.520;11.342;2023-07-24T11:49:08;100542.19;;;33.06;44.69
74370;BME280;71062;44.520;11.342;2023-07-24T11:51:36;100530.53;;;33.59;43.93
74370;BME280;71062;44.520;11.342;2023-07-24T11:54:11;100533.63;;;33.99;44.14
74370;BME280;71062;44.520;11.342;2023-07-24T11:56:37;100531.41;;;34.49;42.01
74370;BME280;71062;44.520;11.342;2023-07-24T11:59:15;100519.66;;;34.10;44.07
74370;BME280;71062;44.520;11.342;2023-07-24T12:01:41;100490.63;;;33.56;43.87
74370;BME280;71062;44.520;11.342;2023-07-24T12:04:06;100494.38;;;33.30;44.94
74370;BME280;71062;44.520;11.342;2023-07-24T12:06:32;100508.66;;;33.21;46.29
74370;BME280;71062;44.520;11.342;2023-07-24T12:09:04;100499.19;;;33.40;45.72
74370;BME280;71062;44.520;11.342;2023-07-24T12:11:31;100491.94;;;33.25;45.73
74370;BME280;71062;44.520;11.342;2023-07-24T12:13:57;100485.63;;;33.30;45.92
74370;BME280;71062;44.520;11.342;2023-07-24T12:16:23;100472.47;;;33.45;44.11
74370;BME280;71062;44.520;11.342;2023-07-24T12:18:48;100455.19;;;34.63;42.50
74370;BME280;71062;44.520;11.342;2023-07-24T12:21:14;100447.53;;;35.40;39.36
74370;BME280;71062;44.520;11.342;2023-07-24T12:23:39;100450.94;;;35.03;39.43
74370;BME280;71062;44.520;11.342;2023-07-24T12:26:05;100456.38;;;34.07;39.98
74370;BME280;71062;44.520;11.342;2023-07-24T12:28:30;100431.69;;;33.45;42.15
74370;BME280;71062;44.520;11.342;2023-07-24T12:30:56;100428.75;;;33.22;42.49
74370;BME280;71062;44.520;11.342;2023-07-24T12:33:21;100420.25;;;33.31;42.19
74370;BME280;71062;44.520;11.342;2023-07-24T12:35:52;100413.03;;;33.16;42.27
74370;BME280;71062;44.520;11.342;2023-07-24T12:38:18;100411.16;;;32.76;42.05
74370;BME280;71062;44.520;11.342;2023-07-24T12:40:44;100420.81;;;33.49;40.91
74370;BME280;71062;44.520;11.342;2023-07-24T12:43:09;100428.44;;;33.86;40.64
74370;BME280;71062;44.520;11.342;2023-07-24T12:45:35;100433.56;;;33.78;41.77
74370;BME280;71062;44.520;11.342;2023-07-24T12:48:01;100431.78;;;33.84;42.23
74370;BME280;71062;44.520;11.342;2023-07-24T12:50:26;100423.84;;;33.65;42.66
74370;BME280;71062;44.520;11.342;2023-07-24T12:52:51;100434.69;;;33.15;42.91
74370;BME280;71062;44.520;11.342;2023-07-24T12:55:17;100430.66;;;33.78;42.46
74370;BME280;71062;44.520;11.342;2023-07-24T12:57:43;100424.44;;;34.39;40.27
74370;BME280;71062;44.520;11.342;2023-07-24T13:00:09;100431.97;;;34.75;41.35
74370;BME280;71062;44.520;11.342;2023-07-24T13:02:35;100425.88;;;34.31;41.18
74370;BME280;71062;44.520;11.342;2023-07-24T13:05:01;100405.44;;;33.68;41.78
74370;BME280;71062;44.520;11.342;2023-07-24T13:07:27;100390.56;;;33.17;41.99
74370;BME280;71062;44.520;11.342;2023-07-24T13:09:54;100386.97;;;32.79;42.58
74370;BME280;71062;44.520;11.342;2023-07-24T13:12:19;100381.69;;;32.44;44.54
74370;BME280;71062;44.520;11.342;2023-07-24T13:14:45;100374.03;;;31.93;44.99
74370;BME280;71062;44.520;11.342;2023-07-24T13:17:11;100367.47;;;31.86;46.20
74370;BME280;71062;44.520;11.342;2023-07-24T13:19:37;100363.06;;;31.70;44.70
74370;BME280;71062;44.520;11.342;2023-07-24T13:22:03;100358.44;;;31.77;44.93
74370;BME280;71062;44.520;11.342;2023-07-24T13:24:28;100366.06;;;31.63;45.05
74370;BME280;71062;44.520;11.342;2023-07-24T13:26:54;100367.25;;;31.69;44.56
74370;BME280;71062;44.520;11.342;2023-07-24T13:29:20;100367.78;;;31.61;44.12
74370;BME280;71062;44.520;11.342;2023-07-24T13:31:46;100374.56;;;31.81;44.35
74370;BME280;71062;44.520;11.342;2023-07-24T13:34:11;100349.84;;;32.03;43.02
74370;BME280;71062;44.520;11.342;2023-07-24T13:36:37;100338.91;;;32.11;41.87
74370;BME280;71062;44.520;11.342;2023-07-24T13:39:03;100328.28;;;32.01;43.05
74370;BME280;71062;44.520;11.342;2023-07-24T13:41:28;100327.88;;;31.99;42.14
74370;BME280;71062;44.520;11.342;2023-07-24T13:43:54;100308.75;;;32.01;41.80
74370;BME280;71062;44.520;11.342;2023-07-24T13:46:19;100290.88;;;32.03;42.87
74370;BME280;71062;44.520;11.342;2023-07-24T13:48:45;100305.69;;;31.78;43.32
74370;BME280;71062;44.520;11.342;2023-07-24T13:51:10;100287.91;;;31.72;43.64
74370;BME280;71062;44.520;11.342;2023-07-24T13:53:36;100300.13;;;31.94;43.25
74370;BME280;71062;44.520;11.342;2023-07-24T13:56:02;100289.63;;;32.00;43.12
74370;BME280;71062;44.520;11.342;2023-07-24T13:58:28;100307.44;;;32.06;43.91
74370;BME280;71062;44.520;11.342;2023-07-24T14:00:53;100314.25;;;31.92;43.07
74370;BME280;71062;44.520;11.342;2023-07-24T14:03:19;100318.06;;;31.89;43.02
74370;BME280;71062;44.520;11.342;2023-07-24T14:05:44;100301.13;;;31.81;43.54
74370;BME280;71062;44.520;11.342;2023-07-24T14:08:10;100298.53;;;31.86;43.20
74370;BME280;71062;44.520;11.342;2023-07-24T14:10:37;100285.75;;;31.80;43.56
74370;BME280;71062;44.520;11.342;2023-07-24T14:13:03;100286.28;;;31.71;44.40
74370;BME280;71062;44.520;11.342;2023-07-24T14:15:29;100277.78;;;31.88;43.20
74370;BME280;71062;44.520;11.342;2023-07-24T14:17:55;100290.25;;;31.85;43.23
74370;BME280;71062;44.520;11.342;2023-07-24T14:20:20;100279.34;;;31.96;42.71
74370;BME280;71062;44.520;11.342;2023-07-24T14:22:46;100287.00;;;31.79;42.82
74370;BME280;71062;44.520;11.342;2023-07-24T14:25:11;100306.03;;;31.84;43.36
74370;BME280;71062;44.520;11.342;2023-07-24T14:27:37;100310.91;;;31.94;43.16
74370;BME280;71062;44.520;11.342;2023-07-24T14:30:03;100300.41;;;32.03;43.11
74370;BME280;71062;44.520;11.342;2023-07-24T14:32:29;100309.75;;;32.18;43.72
74370;BME280;71062;44.520;11.342;2023-07-24T14:34:55;100300.16;;;31.91;43.87
74370;BME280;71062;44.520;11.342;2023-07-24T14:37:21;100292.69;;;31.90;44.10
74370;BME280;71062;44.520;11.342;2023-07-24T14:39:46;100270.28;;;31.87;44.21
74370;BME280;71062;44.520;11.342;2023-07-24T14:42:12;100281.56;;;31.81;43.60
74370;BME280;71062;44.520;11.342;2023-07-24T14:44:38;100265.00;;;31.78;43.92
74370;BME280;71062;44.520;11.342;2023-07-24T14:47:04;100266.59;;;31.83;43.70
74370;BME280;71062;44.520;11.342;2023-07-24T14:49:30;100250.97;;;31.73;44.28
74370;BME280;71062;44.520;11.342;2023-07-24T14:51:55;100247.09;;;31.83;44.32
74370;BME280;71062;44.520;11.342;2023-07-24T14:54:21;100235.16;;;31.74;43.38
74370;BME280;71062;44.520;11.342;2023-07-24T14:56:46;100245.41;;;31.86;44.34
74370;BME280;71062;44.520;11.342;2023-07-24T14:59:12;100243.19;;;31.97;43.77
74370;BME280;71062;44.520;11.342;2023-07-24T15:01:37;100242.69;;;32.02;43.83
74370;BME280;71062;44.520;11.342;2023-07-24T15:04:03;100255.28;;;31.92;44.14
74370;BME280;71062;44.520;11.342;2023-07-24T15:06:29;100238.25;;;31.94;43.15
74370;BME280;71062;44.520;11.342;2023-07-24T15:08:56;100234.44;;;31.97;43.35
74370;BME280;71062;44.520;11.342;2023-07-24T15:11:22;100223.31;;;31.92;43.87
74370;BME280;71062;44.520;11.342;2023-07-24T15:13:57;100241.81;;;32.05;43.88
74370;BME280;71062;44.520;11.342;2023-07-24T15:16:23;100271.34;;;32.03;44.84
74370;BME280;71062;44.520;11.342;2023-07-24T15:18:48;100276.03;;;31.94;44.86
74370;BME280;71062;44.520;11.342;2023-07-24T15:21:14;100283.59;;;31.88;45.75
74370;BME280;71062;44.520;11.342;2023-07-24T15:23:39;100284.56;;;31.74;46.04
74370;BME280;71062;44.520;11.342;2023-07-24T15:26:05;100264.66;;;31.72;46.36
74370;BME280;71062;44.520;11.342;2023-07-24T15:28:30;100274.00;;;31.57;46.36
74370;BME280;71062;44.520;11.342;2023-07-24T15:30:56;100282.97;;;31.69;46.20
74370;BME280;71062;44.520;11.342;2023-07-24T15:33:21;100265.94;;;31.71;46.10
74370;BME280;71062;44.520;11.342;2023-07-24T15:35:48;100240.19;;;31.73;46.28
74370;BME280;71062;44.520;11.342;2023-07-24T15:38:15;100219.16;;;31.62;46.77
74370;BME280;71062;44.520;11.342;2023-07-24T15:40:41;100233.19;;;31.67;47.53
74370;BME280;71062;44.520;11.342;2023-07-24T15:43:06;100250.53;;;31.74;46.92
74370;BME280;71062;44.520;11.342;2023-07-24T15:45:32;100243.72;;;31.85;46.38